sensor_id;sensor_type;location;lat;lon;timestamp;P1;durP1;ratioP1;P2;durP2;ratioP2
2784;SDS011;57944;48.722;9.316;2023-08-24T00:00:40;20.77;;;15.77;;
2784;SDS011;57944;48.722;9.316;2023-08-24T00:03:11;19.70;;;15.17;;
2784;SDS011;57944;48.722;9.316;2023-08-24T00:05:41;17.27;;;15.47;;
2784;SDS011;57944;48.722;9.316;2023-08-24T00:08:12;18.33;;;16.40;;
2784;SDS011;57944;48.722;9.316;2023-08-24T00:10:46;16.60;;;14.77;;
2784;SDS011;57944;48.722;9.316;2023-08-24T00:13:17;17.47;;;15.73;;
2784;SDS011;57944;48.722;9.316;2023-08-24T00:15:47;21.20;;;16.30;;
2784;SDS011;57944;48.722;9.316;2023-08-24T00:18:18;21.80;;;16.03;;
2784;SDS011;57944;48.722;9.316;2023-08-24T00:20:49;29.20;;;16.50;;
2784;SDS011;57944;48.722;9.316;2023-08-24T00:23:20;18.10;;;16.20;;
2784;SDS011;57944;48.722;9.316;2023-08-24T00:25:53;19.23;;;16.83;;
2784;SDS011;57944;48.722;9.316;2023-08-24T00:28:24;20.10;;;16.33;;
2784;SDS011;57944;48.722;9.316;2023-08-24T00:30:55;19.33;;;15.33;;
2784;SDS011;57944;48.722;9.316;2023-08-24T00:33:26;20.80;;;16.10;;
2784;SDS011;57944;48.722;9.316;2023-08-24T00:35:58;16.30;;;14.60;;
2784;SDS011;57944;48.722;9.316;2023-08-24T00:38:30;23.10;;;16.07;;
2784;SDS011;57944;48.722;9.316;2023-08-24T00:41:03;18.60;;;15.90;;
2784;SDS011;57944;48.722;9.316;2023-08-24T00:43:34;17.97;;;16.07;;
2784;SDS011;57944;48.722;9.316;2023-08-24T00:46:05;17.93;;;16.33;;
2784;SDS011;57944;48.722;9.316;2023-08-24T00:48:35;19.07;;;16.50;;
2784;SDS011;57944;48.722;9.316;2023-08-24T00:51:06;21.50;;;16.87;;
2784;SDS011;57944;48.722;9.316;2023-08-24T00:53:38;20.43;;;16.10;;
2784;SDS011;57944;48.722;9.316;2023-08-24T00:56:11;20.83;;;16.00;;
2784;SDS011;57944;48.722;9.316;2023-08-24T00:58:42;18.23;;;16.33;;
2784;SDS011;57944;48.722;9.316;2023-08-24T01:01:16;17.70;;;15.90;;
2784;SDS011;57944;48.722;9.316;2023-08-24T01:03:47;21.63;;;15.57;;
2784;SDS011;57944;48.722;9.316;2023-08-24T01:06:18;17.23;;;15.43;;
2784;SDS011;57944;48.722;9.316;2023-08-24T01:08:49;18.20;;;16.40;;
2784;SDS011;57944;48.722;9.316;2023-08-24T01:11:25;19.87;;;17.53;;
2784;SDS011;57944;48.722;9.316;2023-08-24T01:14:04;19.03;;;17.00;;
2784;SDS011;57944;48.722;9.316;2023-08-24T01:16:41;21.23;;;18.97;;
2784;SDS011;57944;48.722;9.316;2023-08-24T01:19:20;17.97;;;16.10;;
2784;SDS011;57944;48.722;9.316;2023-08-24T01:21:57;20.40;;;18.30;;
2784;SDS011;57944;48.722;9.316;2023-08-24T01:24:33;23.40;;;16.40;;
2784;SDS011;57944;48.722;9.316;2023-08-24T01:27:11;19.27;;;17.07;;
2784;SDS011;57944;48.722;9.316;2023-08-24T01:29:43;20.47;;;18.27;;
2784;SDS011;57944;48.722;9.316;2023-08-24T01:32:15;20.33;;;17.57;;
2784;SDS011;57944;48.722;9.316;2023-08-24T01:34:45;20.07;;;17.97;;
2784;SDS011;57944;48.722;9.316;2023-08-24T01:37:16;19.20;;;15.83;;
2784;SDS011;57944;48.722;9.316;2023-08-24T01:39:48;19.10;;;17.10;;
2784;SDS011;57944;48.722;9.316;2023-08-24T01:42:28;22.20;;;18.17;;
2784;SDS011;57944;48.722;9.316;2023-08-24T01:45:04;23.37;;;18.07;;
2784;SDS011;57944;48.722;9.316;2023-08-24T01:47:37;19.17;;;16.83;;
2784;SDS011;57944;48.722;9.316;2023-08-24T01:50:11;20.67;;;18.47;;
2784;SDS011;57944;48.722;9.316;2023-08-24T01:52:43;18.93;;;17.13;;
2784;SDS011;57944;48.722;9.316;2023-08-24T01:55:14;20.93;;;17.50;;
2784;SDS011;57944;48.722;9.316;2023-08-24T01:57:51;19.53;;;17.60;;
2784;SDS011;57944;48.722;9.316;2023-08-24T02:00:22;17.93;;;16.13;;
2784;SDS011;57944;48.722;9.316;2023-08-24T02:02:53;20.33;;;16.53;;
2784;SDS011;57944;48.722;9.316;2023-08-24T02:05:24;20.30;;;18.30;;
2784;SDS011;57944;48.722;9.316;2023-08-24T02:07:55;24.53;;;20.27;;
2784;SDS011;57944;48.722;9.316;2023-08-24T02:10:26;22.97;;;18.97;;
2784;SDS011;57944;48.722;9.316;2023-08-24T02:12:59;26.97;;;22.93;;
2784;SDS011;57944;48.722;9.316;2023-08-24T02:15:30;20.23;;;18.10;;
2784;SDS011;57944;48.722;9.316;2023-08-24T02:18:00;25.90;;;18.57;;
2784;SDS011;57944;48.722;9.316;2023-08-24T02:20:34;21.90;;;19.60;;
2784;SDS011;57944;48.722;9.316;2023-08-24T02:23:05;27.10;;;20.50;;
2784;SDS011;57944;48.722;9.316;2023-08-24T02:25:41;22.00;;;18.83;;
2784;SDS011;57944;48.722;9.316;2023-08-24T02:28:14;22.53;;;20.43;;
2784;SDS011;57944;48.722;9.316;2023-08-24T02:34:17;20.53;;;18.60;;
2784;SDS011;57944;48.722;9.316;2023-08-24T02:36:48;21.17;;;18.93;;
2784;SDS011;57944;48.722;9.316;2023-08-24T02:39:18;22.00;;;19.40;;
2784;SDS011;57944;48.722;9.316;2023-08-24T02:41:49;22.53;;;19.47;;
2784;SDS011;57944;48.722;9.316;2023-08-24T02:44:22;22.30;;;19.13;;
2784;SDS011;57944;48.722;9.316;2023-08-24T02:46:53;20.70;;;18.53;;
2784;SDS011;57944;48.722;9.316;2023-08-24T02:49:24;21.80;;;18.17;;
2784;SDS011;57944;48.722;9.316;2023-08-24T02:51:54;27.80;;;20.23;;
2784;SDS011;57944;48.722;9.316;2023-08-24T02:54:26;21.40;;;18.17;;
2784;SDS011;57944;48.722;9.316;2023-08-24T02:56:56;22.63;;;20.20;;
2784;SDS011;57944;48.722;9.316;2023-08-24T02:59:29;28.53;;;22.20;;
2784;SDS011;57944;48.722;9.316;2023-08-24T03:02:00;26.73;;;21.83;;
2784;SDS011;57944;48.722;9.316;2023-08-24T03:04:31;25.80;;;21.37;;
2784;SDS011;57944;48.722;9.316;2023-08-24T03:07:02;25.30;;;20.67;;
2784;SDS011;57944;48.722;9.316;2023-08-24T03:09:34;26.87;;;21.93;;
2784;SDS011;57944;48.722;9.316;2023-08-24T03:12:05;25.87;;;20.87;;
2784;SDS011;57944;48.722;9.316;2023-08-24T03:14:39;22.93;;;20.60;;
2784;SDS011;57944;48.722;9.316;2023-08-24T03:17:12;23.07;;;20.70;;
2784;SDS011;57944;48.722;9.316;2023-08-24T03:19:43;25.73;;;22.17;;
2784;SDS011;57944;48.722;9.316;2023-08-24T03:22:14;23.37;;;20.90;;
2784;SDS011;57944;48.722;9.316;2023-08-24T03:24:44;22.20;;;19.97;;
2784;SDS011;57944;48.722;9.316;2023-08-24T03:27:15;19.40;;;17.40;;
2784;SDS011;57944;48.722;9.316;2023-08-24T03:29:54;21.53;;;19.33;;
2784;SDS011;57944;48.722;9.316;2023-08-24T03:32:25;19.83;;;17.70;;
2784;SDS011;57944;48.722;9.316;2023-08-24T03:34:58;27.53;;;19.80;;
2784;SDS011;57944;48.722;9.316;2023-08-24T03:37:29;19.97;;;17.70;;
2784;SDS011;57944;48.722;9.316;2023-08-24T03:40:00;26.47;;;19.27;;
2784;SDS011;57944;48.722;9.316;2023-08-24T03:42:33;23.30;;;20.30;;
2784;SDS011;57944;48.722;9.316;2023-08-24T03:45:07;24.07;;;21.47;;
2784;SDS011;57944;48.722;9.316;2023-08-24T03:47:38;23.03;;;20.93;;
2784;SDS011;57944;48.722;9.316;2023-08-24T03:50:08;24.00;;;20.40;;
2784;SDS011;57944;48.722;9.316;2023-08-24T03:52:40;25.53;;;19.83;;
2784;SDS011;57944;48.722;9.316;2023-08-24T03:55:11;28.30;;;22.73;;
2784;SDS011;57944;48.722;9.316;2023-08-24T03:57:42;29.90;;;22.60;;
2784;SDS011;57944;48.722;9.316;2023-08-24T04:00:16;24.80;;;22.07;;
2784;SDS011;57944;48.722;9.316;2023-08-24T04:02:47;25.57;;;22.67;;
2784;SDS011;57944;48.722;9.316;2023-08-24T04:05:23;28.10;;;21.63;;
2784;SDS011;57944;48.722;9.316;2023-08-24T04:07:54;25.70;;;22.10;;
2784;SDS011;57944;48.722;9.316;2023-08-24T04:10:27;26.37;;;23.47;;
2784;SDS011;57944;48.722;9.316;2023-08-24T04:12:58;22.43;;;19.60;;
2784;SDS011;57944;48.722;9.316;2023-08-24T04:15:31;30.13;;;22.20;;
2784;SDS011;57944;48.722;9.316;2023-08-24T04:18:02;34.70;;;22.10;;
2784;SDS011;57944;48.722;9.316;2023-08-24T04:20:33;25.03;;;22.23;;
2784;SDS011;57944;48.722;9.316;2023-08-24T04:23:04;24.43;;;20.83;;
2784;SDS011;57944;48.722;9.316;2023-08-24T04:25:34;22.90;;;20.57;;
2784;SDS011;57944;48.722;9.316;2023-08-24T04:28:09;24.13;;;21.57;;
2784;SDS011;57944;48.722;9.316;2023-08-24T04:30:43;23.30;;;19.00;;
2784;SDS011;57944;48.722;9.316;2023-08-24T04:33:19;26.23;;;21.13;;
2784;SDS011;57944;48.722;9.316;2023-08-24T04:35:50;22.50;;;20.20;;
2784;SDS011;57944;48.722;9.316;2023-08-24T04:38:20;22.77;;;19.67;;
2784;SDS011;57944;48.722;9.316;2023-08-24T04:40:51;21.73;;;19.00;;
2784;SDS011;57944;48.722;9.316;2023-08-24T04:43:23;21.00;;;18.90;;
2784;SDS011;57944;48.722;9.316;2023-08-24T04:45:57;21.93;;;18.43;;
2784;SDS011;57944;48.722;9.316;2023-08-24T04:48:28;20.63;;;18.00;;
2784;SDS011;57944;48.722;9.316;2023-08-24T04:51:00;18.83;;;17.03;;
2784;SDS011;57944;48.722;9.316;2023-08-24T04:53:31;21.73;;;19.53;;
2784;SDS011;57944;48.722;9.316;2023-08-24T04:56:02;23.20;;;18.27;;
2784;SDS011;57944;48.722;9.316;2023-08-24T04:58:33;21.43;;;19.20;;
2784;SDS011;57944;48.722;9.316;2023-08-24T05:01:06;20.77;;;18.57;;
2784;SDS011;57944;48.722;9.316;2023-08-24T05:03:37;21.30;;;19.07;;
2784;SDS011;57944;48.722;9.316;2023-08-24T05:06:07;21.23;;;19.13;;
2784;SDS011;57944;48.722;9.316;2023-08-24T05:08:38;20.90;;;18.53;;
2784;SDS011;57944;48.722;9.316;2023-08-24T05:11:11;22.10;;;17.70;;
2784;SDS011;57944;48.722;9.316;2023-08-24T05:13:43;20.80;;;18.63;;
2784;SDS011;57944;48.722;9.316;2023-08-24T05:16:16;22.80;;;19.40;;
2784;SDS011;57944;48.722;9.316;2023-08-24T05:18:47;23.20;;;19.50;;
2784;SDS011;57944;48.722;9.316;2023-08-24T05:21:18;20.77;;;18.70;;
2784;SDS011;57944;48.722;9.316;2023-08-24T05:23:48;25.00;;;18.80;;
2784;SDS011;57944;48.722;9.316;2023-08-24T05:26:19;21.53;;;18.73;;
2784;SDS011;57944;48.722;9.316;2023-08-24T05:28:52;19.47;;;17.47;;
2784;SDS011;57944;48.722;9.316;2023-08-24T05:31:25;23.20;;;18.37;;
2784;SDS011;57944;48.722;9.316;2023-08-24T05:33:56;18.43;;;16.30;;
2784;SDS011;57944;48.722;9.316;2023-08-24T05:36:26;18.90;;;16.83;;
2784;SDS011;57944;48.722;9.316;2023-08-24T05:38:57;18.30;;;16.50;;
2784;SDS011;57944;48.722;9.316;2023-08-24T05:41:32;18.70;;;16.83;;
2784;SDS011;57944;48.722;9.316;2023-08-24T05:44:03;15.83;;;14.30;;
2784;SDS011;57944;48.722;9.316;2023-08-24T05:46:36;16.47;;;14.23;;
2784;SDS011;57944;48.722;9.316;2023-08-24T05:49:07;18.93;;;13.30;;
2784;SDS011;57944;48.722;9.316;2023-08-24T05:51:37;14.83;;;13.33;;
2784;SDS011;57944;48.722;9.316;2023-08-24T05:54:08;15.30;;;13.33;;
2784;SDS011;57944;48.722;9.316;2023-08-24T05:56:40;14.50;;;12.80;;
2784;SDS011;57944;48.722;9.316;2023-08-24T05:59:10;14.57;;;12.77;;
2784;SDS011;57944;48.722;9.316;2023-08-24T06:01:43;15.63;;;13.87;;
2784;SDS011;57944;48.722;9.316;2023-08-24T06:04:14;15.77;;;12.23;;
2784;SDS011;57944;48.722;9.316;2023-08-24T06:06:45;14.00;;;12.60;;
2784;SDS011;57944;48.722;9.316;2023-08-24T06:09:16;16.03;;;12.63;;
2784;SDS011;57944;48.722;9.316;2023-08-24T06:11:46;14.07;;;12.03;;
2784;SDS011;57944;48.722;9.316;2023-08-24T06:14:17;13.80;;;12.10;;
2784;SDS011;57944;48.722;9.316;2023-08-24T06:16:50;20.83;;;12.60;;
2784;SDS011;57944;48.722;9.316;2023-08-24T06:19:22;19.83;;;11.33;;
2784;SDS011;57944;48.722;9.316;2023-08-24T06:21:53;13.20;;;11.67;;
2784;SDS011;57944;48.722;9.316;2023-08-24T06:24:23;15.87;;;11.47;;
2784;SDS011;57944;48.722;9.316;2023-08-24T06:26:54;16.87;;;12.80;;
2784;SDS011;57944;48.722;9.316;2023-08-24T06:29:24;19.20;;;11.80;;
2784;SDS011;57944;48.722;9.316;2023-08-24T06:31:59;15.80;;;13.50;;
2784;SDS011;57944;48.722;9.316;2023-08-24T06:34:30;14.80;;;10.53;;
2784;SDS011;57944;48.722;9.316;2023-08-24T06:37:00;12.97;;;11.57;;
2784;SDS011;57944;48.722;9.316;2023-08-24T06:39:32;16.90;;;11.60;;
2784;SDS011;57944;48.722;9.316;2023-08-24T06:42:03;12.60;;;10.70;;
2784;SDS011;57944;48.722;9.316;2023-08-24T06:44:33;12.67;;;11.37;;
2784;SDS011;57944;48.722;9.316;2023-08-24T06:47:06;13.30;;;11.70;;
2784;SDS011;57944;48.722;9.316;2023-08-24T06:49:37;15.63;;;11.23;;
2784;SDS011;57944;48.722;9.316;2023-08-24T06:52:08;22.33;;;13.60;;
2784;SDS011;57944;48.722;9.316;2023-08-24T06:54:39;15.13;;;13.00;;
2784;SDS011;57944;48.722;9.316;2023-08-24T06:57:09;15.77;;;13.13;;
2784;SDS011;57944;48.722;9.316;2023-08-24T06:59:40;13.10;;;11.80;;
2784;SDS011;57944;48.722;9.316;2023-08-24T07:02:13;19.40;;;10.80;;
2784;SDS011;57944;48.722;9.316;2023-08-24T07:04:44;13.63;;;10.90;;
2784;SDS011;57944;48.722;9.316;2023-08-24T07:07:15;15.67;;;12.73;;
2784;SDS011;57944;48.722;9.316;2023-08-24T07:09:45;14.43;;;12.93;;
2784;SDS011;57944;48.722;9.316;2023-08-24T07:12:16;18.93;;;12.50;;
2784;SDS011;57944;48.722;9.316;2023-08-24T07:14:46;16.70;;;12.00;;
2784;SDS011;57944;48.722;9.316;2023-08-24T07:17:20;15.90;;;13.80;;
2784;SDS011;57944;48.722;9.316;2023-08-24T07:19:51;21.50;;;11.70;;
2784;SDS011;57944;48.722;9.316;2023-08-24T07:22:22;16.53;;;13.90;;
2784;SDS011;57944;48.722;9.316;2023-08-24T07:24:53;23.90;;;19.60;;
2784;SDS011;57944;48.722;9.316;2023-08-24T07:27:24;17.20;;;13.10;;
2784;SDS011;57944;48.722;9.316;2023-08-24T07:29:55;16.90;;;13.10;;
2784;SDS011;57944;48.722;9.316;2023-08-24T07:32:28;16.00;;;13.33;;
2784;SDS011;57944;48.722;9.316;2023-08-24T07:34:59;15.93;;;13.23;;
2784;SDS011;57944;48.722;9.316;2023-08-24T07:37:30;25.80;;;12.73;;
2784;SDS011;57944;48.722;9.316;2023-08-24T07:40:00;13.07;;;11.63;;
2784;SDS011;57944;48.722;9.316;2023-08-24T07:42:35;19.27;;;10.70;;
2784;SDS011;57944;48.722;9.316;2023-08-24T07:45:13;15.00;;;10.80;;
2784;SDS011;57944;48.722;9.316;2023-08-24T07:47:46;11.50;;;10.27;;
2784;SDS011;57944;48.722;9.316;2023-08-24T07:50:18;15.53;;;10.93;;
2784;SDS011;57944;48.722;9.316;2023-08-24T07:52:48;18.83;;;9.70;;
2784;SDS011;57944;48.722;9.316;2023-08-24T07:55:23;15.13;;;10.30;;
2784;SDS011;57944;48.722;9.316;2023-08-24T07:57:53;12.63;;;9.57;;
2784;SDS011;57944;48.722;9.316;2023-08-24T08:00:24;14.40;;;10.07;;
2784;SDS011;57944;48.722;9.316;2023-08-24T08:02:57;12.67;;;9.93;;
2784;SDS011;57944;48.722;9.316;2023-08-24T08:05:28;9.07;;;8.03;;
2784;SDS011;57944;48.722;9.316;2023-08-24T08:07:58;14.13;;;8.83;;
2784;SDS011;57944;48.722;9.316;2023-08-24T08:10:29;9.40;;;8.43;;
2784;SDS011;57944;48.722;9.316;2023-08-24T08:13:02;12.37;;;8.90;;
2784;SDS011;57944;48.722;9.316;2023-08-24T08:15:32;10.63;;;9.00;;
2784;SDS011;57944;48.722;9.316;2023-08-24T08:18:07;12.43;;;9.10;;
2784;SDS011;57944;48.722;9.316;2023-08-24T08:20:39;10.77;;;9.60;;
2784;SDS011;57944;48.722;9.316;2023-08-24T08:23:09;14.33;;;10.83;;
2784;SDS011;57944;48.722;9.316;2023-08-24T08:25:40;9.63;;;8.70;;
2784;SDS011;57944;48.722;9.316;2023-08-24T08:28:10;18.10;;;9.83;;
2784;SDS011;57944;48.722;9.316;2023-08-24T08:30:41;11.97;;;10.63;;
2784;SDS011;57944;48.722;9.316;2023-08-24T08:33:14;15.40;;;10.00;;
2784;SDS011;57944;48.722;9.316;2023-08-24T08:35:46;11.90;;;9.70;;
2784;SDS011;57944;48.722;9.316;2023-08-24T08:38:16;9.67;;;8.27;;
2784;SDS011;57944;48.722;9.316;2023-08-24T08:40:48;11.97;;;9.70;;
2784;SDS011;57944;48.722;9.316;2023-08-24T08:43:20;9.70;;;8.30;;
2784;SDS011;57944;48.722;9.316;2023-08-24T08:45:51;13.30;;;8.83;;
2784;SDS011;57944;48.722;9.316;2023-08-24T08:48:27;11.10;;;8.20;;
2784;SDS011;57944;48.722;9.316;2023-08-24T08:51:00;10.53;;;8.57;;
2784;SDS011;57944;48.722;9.316;2023-08-24T08:53:30;17.03;;;8.00;;
2784;SDS011;57944;48.722;9.316;2023-08-24T08:56:02;10.33;;;7.80;;
2784;SDS011;57944;48.722;9.316;2023-08-24T08:58:33;10.80;;;7.77;;
2784;SDS011;57944;48.722;9.316;2023-08-24T09:01:05;9.47;;;8.03;;
2784;SDS011;57944;48.722;9.316;2023-08-24T09:03:39;12.80;;;7.90;;
2784;SDS011;57944;48.722;9.316;2023-08-24T09:06:11;9.67;;;7.93;;
2784;SDS011;57944;48.722;9.316;2023-08-24T09:08:41;9.20;;;8.30;;
2784;SDS011;57944;48.722;9.316;2023-08-24T09:11:13;9.00;;;7.57;;
2784;SDS011;57944;48.722;9.316;2023-08-24T09:13:45;10.00;;;7.73;;
2784;SDS011;57944;48.722;9.316;2023-08-24T09:16:16;16.57;;;8.50;;
2784;SDS011;57944;48.722;9.316;2023-08-24T09:18:49;7.63;;;6.60;;
2784;SDS011;57944;48.722;9.316;2023-08-24T09:21:20;9.43;;;7.20;;
2784;SDS011;57944;48.722;9.316;2023-08-24T09:23:53;10.53;;;7.80;;
2784;SDS011;57944;48.722;9.316;2023-08-24T09:26:27;10.43;;;6.73;;
2784;SDS011;57944;48.722;9.316;2023-08-24T09:28:59;9.80;;;7.73;;
2784;SDS011;57944;48.722;9.316;2023-08-24T09:31:34;12.83;;;7.40;;
2784;SDS011;57944;48.722;9.316;2023-08-24T09:34:08;14.97;;;7.87;;
2784;SDS011;57944;48.722;9.316;2023-08-24T09:36:40;15.80;;;9.10;;
2784;SDS011;57944;48.722;9.316;2023-08-24T09:39:16;9.20;;;8.27;;
2784;SDS011;57944;48.722;9.316;2023-08-24T09:41:48;9.20;;;8.30;;
2784;SDS011;57944;48.722;9.316;2023-08-24T09:44:19;8.70;;;7.90;;
2784;SDS011;57944;48.722;9.316;2023-08-24T09:46:50;9.43;;;8.50;;
2784;SDS011;57944;48.722;9.316;2023-08-24T09:49:23;8.87;;;7.97;;
2784;SDS011;57944;48.722;9.316;2023-08-24T09:51:54;11.80;;;8.90;;
2784;SDS011;57944;48.722;9.316;2023-08-24T09:54:26;8.73;;;7.53;;
2784;SDS011;57944;48.722;9.316;2023-08-24T09:56:59;10.13;;;8.23;;
2784;SDS011;57944;48.722;9.316;2023-08-24T09:59:31;10.17;;;9.17;;
2784;SDS011;57944;48.722;9.316;2023-08-24T10:02:03;9.37;;;8.40;;
2784;SDS011;57944;48.722;9.316;2023-08-24T10:04:42;11.20;;;9.53;;
2784;SDS011;57944;48.722;9.316;2023-08-24T10:07:16;12.00;;;9.00;;
2784;SDS011;57944;48.722;9.316;2023-08-24T10:10:00;13.93;;;9.17;;
2784;SDS011;57944;48.722;9.316;2023-08-24T10:12:36;9.90;;;8.90;;
2784;SDS011;57944;48.722;9.316;2023-08-24T10:15:13;11.00;;;9.00;;
2784;SDS011;57944;48.722;9.316;2023-08-24T10:17:44;10.20;;;9.20;;
2784;SDS011;57944;48.722;9.316;2023-08-24T10:20:18;9.77;;;8.73;;
2784;SDS011;57944;48.722;9.316;2023-08-24T10:22:49;10.33;;;9.33;;
2784;SDS011;57944;48.722;9.316;2023-08-24T10:25:21;12.83;;;9.97;;
2784;SDS011;57944;48.722;9.316;2023-08-24T10:27:53;13.67;;;8.40;;
2784;SDS011;57944;48.722;9.316;2023-08-24T10:30:25;12.67;;;9.00;;
2784;SDS011;57944;48.722;9.316;2023-08-24T10:32:57;11.03;;;9.60;;
2784;SDS011;57944;48.722;9.316;2023-08-24T10:35:31;10.10;;;9.00;;
2784;SDS011;57944;48.722;9.316;2023-08-24T10:38:03;9.63;;;8.80;;
2784;SDS011;57944;48.722;9.316;2023-08-24T10:40:35;10.43;;;9.43;;
2784;SDS011;57944;48.722;9.316;2023-08-24T10:43:10;10.33;;;9.33;;
2784;SDS011;57944;48.722;9.316;2023-08-24T10:45:53;13.83;;;9.80;;
2784;SDS011;57944;48.722;9.316;2023-08-24T10:48:26;11.97;;;9.80;;
2784;SDS011;57944;48.722;9.316;2023-08-24T10:53:53;11.43;;;10.00;;
2784;SDS011;57944;48.722;9.316;2023-08-24T10:56:29;13.10;;;10.60;;
2784;SDS011;57944;48.722;9.316;2023-08-24T10:59:10;10.60;;;9.53;;
2784;SDS011;57944;48.722;9.316;2023-08-24T11:01:54;11.40;;;10.27;;
2784;SDS011;57944;48.722;9.316;2023-08-24T11:04:25;11.30;;;10.30;;
2784;SDS011;57944;48.722;9.316;2023-08-24T11:06:59;10.80;;;9.80;;
2784;SDS011;57944;48.722;9.316;2023-08-24T11:09:44;10.50;;;9.50;;
2784;SDS011;57944;48.722;9.316;2023-08-24T11:12:15;12.80;;;11.50;;
2784;SDS011;57944;48.722;9.316;2023-08-24T11:14:49;10.70;;;9.63;;
2784;SDS011;57944;48.722;9.316;2023-08-24T11:17:26;12.53;;;10.40;;
2784;SDS011;57944;48.722;9.316;2023-08-24T11:20:00;10.30;;;9.37;;
2784;SDS011;57944;48.722;9.316;2023-08-24T11:22:35;10.07;;;9.10;;
2784;SDS011;57944;48.722;9.316;2023-08-24T11:25:06;10.97;;;10.00;;
2784;SDS011;57944;48.722;9.316;2023-08-24T11:27:42;15.90;;;11.10;;
2784;SDS011;57944;48.722;9.316;2023-08-24T11:30:16;10.00;;;9.10;;
2784;SDS011;57944;48.722;9.316;2023-08-24T11:32:51;12.23;;;10.90;;
2784;SDS011;57944;48.722;9.316;2023-08-24T11:35:22;14.50;;;10.10;;
2784;SDS011;57944;48.722;9.316;2023-08-24T11:37:56;14.57;;;10.07;;
2784;SDS011;57944;48.722;9.316;2023-08-24T11:40:27;14.03;;;10.30;;
2784;SDS011;57944;48.722;9.316;2023-08-24T11:42:58;11.10;;;10.00;;
2784;SDS011;57944;48.722;9.316;2023-08-24T11:45:32;15.60;;;9.93;;
2784;SDS011;57944;48.722;9.316;2023-08-24T11:48:07;10.40;;;8.97;;
2784;SDS011;57944;48.722;9.316;2023-08-24T11:50:38;13.73;;;10.73;;
2784;SDS011;57944;48.722;9.316;2023-08-24T11:53:12;10.03;;;8.87;;
2784;SDS011;57944;48.722;9.316;2023-08-24T11:55:42;12.70;;;9.90;;
2784;SDS011;57944;48.722;9.316;2023-08-24T11:58:31;13.10;;;10.60;;
2784;SDS011;57944;48.722;9.316;2023-08-24T12:01:02;11.50;;;9.60;;
2784;SDS011;57944;48.722;9.316;2023-08-24T12:03:33;10.90;;;9.80;;
2784;SDS011;57944;48.722;9.316;2023-08-24T12:06:09;11.07;;;9.97;;
2784;SDS011;57944;48.722;9.316;2023-08-24T12:08:45;11.80;;;10.07;;
2784;SDS011;57944;48.722;9.316;2023-08-24T12:11:18;11.17;;;10.07;;
2784;SDS011;57944;48.722;9.316;2023-08-24T12:13:52;14.47;;;9.00;;
2784;SDS011;57944;48.722;9.316;2023-08-24T12:16:24;11.87;;;9.47;;
2784;SDS011;57944;48.722;9.316;2023-08-24T12:18:55;11.33;;;10.20;;
2784;SDS011;57944;48.722;9.316;2023-08-24T12:21:29;14.93;;;10.27;;
2784;SDS011;57944;48.722;9.316;2023-08-24T12:24:03;13.70;;;9.30;;
2784;SDS011;57944;48.722;9.316;2023-08-24T12:26:37;15.93;;;11.77;;
2784;SDS011;57944;48.722;9.316;2023-08-24T12:29:09;11.10;;;10.00;;
2784;SDS011;57944;48.722;9.316;2023-08-24T12:31:42;13.83;;;9.77;;
2784;SDS011;57944;48.722;9.316;2023-08-24T12:34:14;12.57;;;9.30;;
2784;SDS011;57944;48.722;9.316;2023-08-24T12:36:44;12.63;;;9.90;;
2784;SDS011;57944;48.722;9.316;2023-08-24T12:39:18;10.90;;;9.57;;
2784;SDS011;57944;48.722;9.316;2023-08-24T12:41:49;16.90;;;11.80;;
2784;SDS011;57944;48.722;9.316;2023-08-24T12:44:19;12.93;;;9.60;;
2784;SDS011;57944;48.722;9.316;2023-08-24T12:46:50;10.40;;;9.10;;
2784;SDS011;57944;48.722;9.316;2023-08-24T12:49:21;13.90;;;11.00;;
2784;SDS011;57944;48.722;9.316;2023-08-24T12:51:52;12.73;;;9.07;;
2784;SDS011;57944;48.722;9.316;2023-08-24T12:54:25;12.60;;;9.73;;
2784;SDS011;57944;48.722;9.316;2023-08-24T12:56:55;14.20;;;9.20;;
2784;SDS011;57944;48.722;9.316;2023-08-24T12:59:26;14.00;;;8.80;;
2784;SDS011;57944;48.722;9.316;2023-08-24T13:01:57;16.00;;;10.77;;
2784;SDS011;57944;48.722;9.316;2023-08-24T13:04:27;12.57;;;10.30;;
2784;SDS011;57944;48.722;9.316;2023-08-24T13:06:59;9.83;;;8.90;;
2784;SDS011;57944;48.722;9.316;2023-08-24T13:09:33;15.73;;;9.23;;
2784;SDS011;57944;48.722;9.316;2023-08-24T13:12:04;14.93;;;9.60;;
2784;SDS011;57944;48.722;9.316;2023-08-24T13:14:35;12.83;;;8.43;;
2784;SDS011;57944;48.722;9.316;2023-08-24T13:17:08;12.87;;;9.77;;
2784;SDS011;57944;48.722;9.316;2023-08-24T13:19:38;13.23;;;8.33;;
2784;SDS011;57944;48.722;9.316;2023-08-24T13:22:09;15.17;;;11.73;;
2784;SDS011;57944;48.722;9.316;2023-08-24T13:24:42;12.30;;;9.00;;
2784;SDS011;57944;48.722;9.316;2023-08-24T13:27:13;12.80;;;8.00;;
2784;SDS011;57944;48.722;9.316;2023-08-24T13:29:43;16.00;;;8.53;;
2784;SDS011;57944;48.722;9.316;2023-08-24T13:32:14;13.93;;;9.43;;
2784;SDS011;57944;48.722;9.316;2023-08-24T13:34:46;12.00;;;8.33;;
2784;SDS011;57944;48.722;9.316;2023-08-24T13:37:16;13.97;;;8.70;;
2784;SDS011;57944;48.722;9.316;2023-08-24T13:39:50;14.77;;;9.10;;
2784;SDS011;57944;48.722;9.316;2023-08-24T13:42:21;9.80;;;8.37;;
2784;SDS011;57944;48.722;9.316;2023-08-24T13:44:51;12.00;;;8.90;;
2784;SDS011;57944;48.722;9.316;2023-08-24T13:47:22;12.00;;;9.30;;
2784;SDS011;57944;48.722;9.316;2023-08-24T13:49:52;15.90;;;9.50;;
2784;SDS011;57944;48.722;9.316;2023-08-24T13:52:23;16.97;;;8.67;;
2784;SDS011;57944;48.722;9.316;2023-08-24T13:54:56;10.87;;;8.50;;
2784;SDS011;57944;48.722;9.316;2023-08-24T13:57:42;15.27;;;9.23;;
2784;SDS011;57944;48.722;9.316;2023-08-24T14:00:14;13.90;;;9.60;;
2784;SDS011;57944;48.722;9.316;2023-08-24T14:02:45;15.80;;;8.53;;
2784;SDS011;57944;48.722;9.316;2023-08-24T14:05:17;11.90;;;9.57;;
2784;SDS011;57944;48.722;9.316;2023-08-24T14:07:47;18.90;;;9.20;;
2784;SDS011;57944;48.722;9.316;2023-08-24T14:10:20;12.77;;;8.40;;
2784;SDS011;57944;48.722;9.316;2023-08-24T14:12:51;14.50;;;9.30;;
2784;SDS011;57944;48.722;9.316;2023-08-24T14:15:22;21.20;;;8.90;;
2784;SDS011;57944;48.722;9.316;2023-08-24T14:17:52;12.63;;;8.10;;
2784;SDS011;57944;48.722;9.316;2023-08-24T14:20:24;19.37;;;9.27;;
2784;SDS011;57944;48.722;9.316;2023-08-24T14:22:54;19.73;;;9.50;;
2784;SDS011;57944;48.722;9.316;2023-08-24T14:25:28;13.30;;;8.60;;
2784;SDS011;57944;48.722;9.316;2023-08-24T14:27:59;15.50;;;8.50;;
2784;SDS011;57944;48.722;9.316;2023-08-24T14:30:34;10.63;;;7.30;;
2784;SDS011;57944;48.722;9.316;2023-08-24T14:33:04;15.40;;;8.97;;
2784;SDS011;57944;48.722;9.316;2023-08-24T14:35:35;14.17;;;8.30;;
2784;SDS011;57944;48.722;9.316;2023-08-24T14:38:05;21.40;;;8.57;;
2784;SDS011;57944;48.722;9.316;2023-08-24T14:40:39;13.97;;;7.73;;
2784;SDS011;57944;48.722;9.316;2023-08-24T14:43:09;19.30;;;8.30;;
2784;SDS011;57944;48.722;9.316;2023-08-24T14:45:40;20.03;;;8.83;;
2784;SDS011;57944;48.722;9.316;2023-08-24T14:48:10;11.80;;;7.40;;
2784;SDS011;57944;48.722;9.316;2023-08-24T14:50:42;20.50;;;8.53;;
2784;SDS011;57944;48.722;9.316;2023-08-24T14:53:12;13.40;;;8.30;;
2784;SDS011;57944;48.722;9.316;2023-08-24T14:55:47;15.60;;;8.20;;
2784;SDS011;57944;48.722;9.316;2023-08-24T14:58:18;17.07;;;7.80;;
2784;SDS011;57944;48.722;9.316;2023-08-24T15:00:49;13.47;;;9.00;;
2784;SDS011;57944;48.722;9.316;2023-08-24T15:03:21;13.60;;;8.53;;
2784;SDS011;57944;48.722;9.316;2023-08-24T15:05:56;17.07;;;8.73;;
2784;SDS011;57944;48.722;9.316;2023-08-24T15:08:28;14.87;;;8.63;;
2784;SDS011;57944;48.722;9.316;2023-08-24T15:11:02;15.03;;;9.33;;
2784;SDS011;57944;48.722;9.316;2023-08-24T15:13:34;20.63;;;8.70;;
2784;SDS011;57944;48.722;9.316;2023-08-24T15:16:07;25.47;;;10.30;;